sensor_id;sensor_type;location;lat;lon;timestamp;pressure;altitude;pressure_sealevel;temperature;humidity
63097;BME280;49185;42.320;23.198;2022-11-20T00:51:27;94112.56;;;18.96;42.53
63097;BME280;49185;42.320;23.198;2022-11-20T00:54:13;94110.66;;;19.06;41.84
63097;BME280;49185;42.320;23.198;2022-11-20T00:56:58;94111.88;;;18.82;43.00
63097;BME280;49185;42.320;23.198;2022-11-20T00:59:44;94123.09;;;18.58;44.39
63097;BME280;49185;42.320;23.198;2022-11-20T01:25:11;94098.63;;;18.37;44.71
63097;BME280;49185;42.320;23.198;2022-11-20T01:27:37;94102.59;;;18.48;44.62
63097;BME280;49185;42.320;23.198;2022-11-20T01:30:02;94086.00;;;18.64;44.20
63097;BME280;49185;42.320;23.198;2022-11-20T01:32:28;94097.84;;;18.36;45.69
63097;BME280;49185;42.320;23.198;2022-11-20T01:34:53;94095.31;;;18.40;45.00
63097;BME280;49185;42.320;23.198;2022-11-20T01:37:19;94068.16;;;18.10;45.52
63097;BME280;49185;42.320;23.198;2022-11-20T01:39:44;94068.78;;;18.16;45.29
63097;BME280;49185;42.320;23.198;2022-11-20T01:42:10;94058.66;;;18.21;45.82
63097;BME280;49185;42.320;23.198;2022-11-20T01:47:16;94046.81;;;18.23;45.29
63097;BME280;49185;42.320;23.198;2022-11-20T01:50:11;94028.13;;;18.35;44.53
63097;BME280;49185;42.320;23.198;2022-11-20T01:52:43;94029.22;;;18.25;44.69
63097;BME280;49185;42.320;23.198;2022-11-20T01:55:14;94032.66;;;17.99;46.35
63097;BME280;49185;42.320;23.198;2022-11-20T01:57:43;94025.44;;;18.26;44.26
63097;BME280;49185;42.320;23.198;2022-11-20T02:00:12;94025.63;;;18.47;43.74
63097;BME280;49185;42.320;23.198;2022-11-20T02:02:41;94018.28;;;18.21;44.43
63097;BME280;49185;42.320;23.198;2022-11-20T02:05:16;94024.81;;;18.29;44.60
63097;BME280;49185;42.320;23.198;2022-11-20T02:07:44;94028.13;;;18.35;44.31
63097;BME280;49185;42.320;23.198;2022-11-20T02:10:11;94011.50;;;18.24;44.45
63097;BME280;49185;42.320;23.198;2022-11-20T02:12:36;94019.59;;;18.33;44.70
63097;BME280;49185;42.320;23.198;2022-11-20T02:15:02;94015.44;;;18.27;45.09
63097;BME280;49185;42.320;23.198;2022-11-20T02:17:27;94007.66;;;18.25;44.75
63097;BME280;49185;42.320;23.198;2022-11-20T02:19:53;94029.41;;;18.46;44.56
63097;BME280;49185;42.320;23.198;2022-11-20T02:22:35;94022.09;;;18.47;43.94
63097;BME280;49185;42.320;23.198;2022-11-20T02:25:03;94026.09;;;18.49;44.16
63097;BME280;49185;42.320;23.198;2022-11-20T02:27:31;94025.47;;;18.44;44.59
63097;BME280;49185;42.320;23.198;2022-11-20T02:30:04;94025.88;;;18.19;44.91
63097;BME280;49185;42.320;23.198;2022-11-20T02:32:33;94030.53;;;18.54;44.05
63097;BME280;49185;42.320;23.198;2022-11-20T02:37:47;94028.13;;;18.35;44.09
63097;BME280;49185;42.320;23.198;2022-11-20T02:40:14;94032.53;;;18.31;44.56
63097;BME280;49185;42.320;23.198;2022-11-20T02:42:39;94027.84;;;18.54;42.99
63097;BME280;49185;42.320;23.198;2022-11-20T02:45:06;94028.00;;;18.40;44.07
63097;BME280;49185;42.320;23.198;2022-11-20T02:47:32;94025.13;;;18.36;44.58
63097;BME280;49185;42.320;23.198;2022-11-20T02:49:57;94024.81;;;18.38;43.70
63097;BME280;49185;42.320;23.198;2022-11-20T03:05:37;94077.06;;;18.28;45.21
63097;BME280;49185;42.320;23.198;2022-11-20T03:08:02;94071.75;;;18.06;46.09
63097;BME280;49185;42.320;23.198;2022-11-20T03:10:28;94095.22;;;17.82;47.44
63097;BME280;49185;42.320;23.198;2022-11-20T03:12:54;94089.25;;;17.86;47.10
63097;BME280;49185;42.320;23.198;2022-11-20T03:15:20;94095.91;;;17.88;47.49
63097;BME280;49185;42.320;23.198;2022-11-20T03:17:45;94106.53;;;17.62;49.18
63097;BME280;49185;42.320;23.198;2022-11-20T03:20:11;94120.06;;;17.48;47.96
63097;BME280;49185;42.320;23.198;2022-11-20T03:22:36;94119.13;;;18.07;46.12
63097;BME280;49185;42.320;23.198;2022-11-20T03:25:02;94121.56;;;18.26;45.95
63097;BME280;49185;42.320;23.198;2022-11-20T03:27:32;94116.28;;;18.12;45.43
63097;BME280;49185;42.320;23.198;2022-11-20T03:29:57;94120.53;;;18.04;46.35
63097;BME280;49185;42.320;23.198;2022-11-20T03:32:23;94121.03;;;17.83;47.32
63097;BME280;49185;42.320;23.198;2022-11-20T03:34:48;94118.47;;;18.01;46.27
63097;BME280;49185;42.320;23.198;2022-11-20T03:37:14;94134.16;;;18.08;46.80
63097;BME280;49185;42.320;23.198;2022-11-20T03:39:39;94152.56;;;18.14;47.06
63097;BME280;49185;42.320;23.198;2022-11-20T03:42:05;94138.56;;;18.03;47.86
63097;BME280;49185;42.320;23.198;2022-11-20T03:44:30;94150.47;;;18.02;47.96
63097;BME280;49185;42.320;23.198;2022-11-20T03:46:55;94149.16;;;18.00;48.08
63097;BME280;49185;42.320;23.198;2022-11-20T03:49:21;94137.97;;;17.84;48.78
63097;BME280;49185;42.320;23.198;2022-11-20T03:51:46;94147.78;;;17.80;49.04
63097;BME280;49185;42.320;23.198;2022-11-20T03:54:12;94129.94;;;17.61;49.62
63097;BME280;49185;42.320;23.198;2022-11-20T03:56:38;94138.94;;;17.57;50.11
63097;BME280;49185;42.320;23.198;2022-11-20T03:59:04;94139.66;;;17.49;50.23
63097;BME280;49185;42.320;23.198;2022-11-20T04:01:35;94139.91;;;17.61;50.38
63097;BME280;49185;42.320;23.198;2022-11-20T04:04:01;94138.53;;;17.41;51.61
63097;BME280;49185;42.320;23.198;2022-11-20T04:06:29;94143.59;;;17.20;52.48
63097;BME280;49185;42.320;23.198;2022-11-20T04:08:56;94144.06;;;17.22;52.78
63097;BME280;49185;42.320;23.198;2022-11-20T04:11:24;94148.22;;;17.28;52.82
63097;BME280;49185;42.320;23.198;2022-11-20T04:13:55;94147.72;;;17.03;55.57
63097;BME280;49185;42.320;23.198;2022-11-20T04:16:22;94154.84;;;16.44;59.98
63097;BME280;49185;42.320;23.198;2022-11-20T04:18:54;94156.03;;;16.10;61.13
63097;BME280;49185;42.320;23.198;2022-11-20T04:21:21;94163.50;;;15.99;61.33
63097;BME280;49185;42.320;23.198;2022-11-20T04:23:46;94164.31;;;16.27;58.96
63097;BME280;49185;42.320;23.198;2022-11-20T04:26:12;94164.28;;;16.41;58.83
63097;BME280;49185;42.320;23.198;2022-11-20T04:28:38;94175.13;;;16.22;59.76
63097;BME280;49185;42.320;23.198;2022-11-20T04:33:33;94187.03;;;15.69;64.95
63097;BME280;49185;42.320;23.198;2022-11-20T04:36:05;94189.06;;;15.26;68.40
63097;BME280;49185;42.320;23.198;2022-11-20T04:38:31;94178.28;;;14.93;70.72
63097;BME280;49185;42.320;23.198;2022-11-20T04:41:01;94188.69;;;14.75;71.83
63097;BME280;49185;42.320;23.198;2022-11-20T04:43:27;94184.19;;;14.71;72.47
63097;BME280;49185;42.320;23.198;2022-11-20T04:45:54;94192.72;;;14.73;71.94
63097;BME280;49185;42.320;23.198;2022-11-20T04:48:19;94172.19;;;14.68;72.12
63097;BME280;49185;42.320;23.198;2022-11-20T04:50:45;94183.75;;;14.64;72.32
63097;BME280;49185;42.320;23.198;2022-11-20T04:53:11;94187.31;;;14.54;73.72
63097;BME280;49185;42.320;23.198;2022-11-20T04:55:36;94192.72;;;14.49;73.72
63097;BME280;49185;42.320;23.198;2022-11-20T04:58:02;94192.72;;;14.49;74.28
63097;BME280;49185;42.320;23.198;2022-11-20T05:00:27;94184.66;;;14.54;73.38
63097;BME280;49185;42.320;23.198;2022-11-20T05:02:53;94189.38;;;14.62;73.27
63097;BME280;49185;42.320;23.198;2022-11-20T05:05:18;94173.25;;;14.67;72.21
63097;BME280;49185;42.320;23.198;2022-11-20T05:07:44;94185.34;;;14.65;72.54
63097;BME280;49185;42.320;23.198;2022-11-20T05:10:09;94182.94;;;14.63;72.28
63097;BME280;49185;42.320;23.198;2022-11-20T05:12:34;94183.09;;;14.48;73.42
63097;BME280;49185;42.320;23.198;2022-11-20T05:15:00;94181.81;;;14.45;73.60
63097;BME280;49185;42.320;23.198;2022-11-20T05:17:25;94185.25;;;14.21;75.31
63097;BME280;49185;42.320;23.198;2022-11-20T05:19:51;94179.75;;;14.13;76.03
63097;BME280;49185;42.320;23.198;2022-11-20T05:22:16;94175.06;;;14.23;76.17
63097;BME280;49185;42.320;23.198;2022-11-20T05:24:42;94183.50;;;14.12;75.87
63097;BME280;49185;42.320;23.198;2022-11-20T05:27:07;94192.94;;;14.04;76.80
63097;BME280;49185;42.320;23.198;2022-11-20T05:29:32;94200.59;;;14.16;76.25
63097;BME280;49185;42.320;23.198;2022-11-20T05:31:58;94206.06;;;14.30;75.00
63097;BME280;49185;42.320;23.198;2022-11-20T05:34:23;94197.28;;;14.24;75.97
63097;BME280;49185;42.320;23.198;2022-11-20T05:36:49;94191.69;;;14.44;74.53
63097;BME280;49185;42.320;23.198;2022-11-20T05:39:14;94184.06;;;14.57;73.19
63097;BME280;49185;42.320;23.198;2022-11-20T05:41:39;94194.25;;;14.55;73.08
63097;BME280;49185;42.320;23.198;2022-11-20T05:44:05;94185.22;;;14.51;73.38
63097;BME280;49185;42.320;23.198;2022-11-20T05:46:30;94189.81;;;14.69;73.33
63097;BME280;49185;42.320;23.198;2022-11-20T05:48:57;94193.53;;;14.73;73.07
63097;BME280;49185;42.320;23.198;2022-11-20T05:51:23;94197.19;;;14.58;73.71
63097;BME280;49185;42.320;23.198;2022-11-20T05:53:48;94197.06;;;14.69;72.88
63097;BME280;49185;42.320;23.198;2022-11-20T05:56:17;94195.28;;;14.83;71.67
63097;BME280;49185;42.320;23.198;2022-11-20T05:58:43;94199.66;;;14.98;70.68
63097;BME280;49185;42.320;23.198;2022-11-20T06:03:37;94190.50;;;14.99;71.63
63097;BME280;49185;42.320;23.198;2022-11-20T06:06:04;94196.59;;;15.05;70.87
63097;BME280;49185;42.320;23.198;2022-11-20T06:08:30;94190.81;;;15.16;70.52
63097;BME280;49185;42.320;23.198;2022-11-20T06:10:56;94183.97;;;15.24;69.36
63097;BME280;49185;42.320;23.198;2022-11-20T06:13:22;94178.25;;;15.31;69.41
63097;BME280;49185;42.320;23.198;2022-11-20T06:15:49;94179.50;;;15.19;69.82
63097;BME280;49185;42.320;23.198;2022-11-20T06:18:15;94178.19;;;15.36;69.22
63097;BME280;49185;42.320;23.198;2022-11-20T06:20:40;94173.31;;;15.38;63.58
63097;BME280;49185;42.320;23.198;2022-11-20T06:23:06;94180.88;;;16.02;61.83
63097;BME280;49185;42.320;23.198;2022-11-20T06:25:31;94170.38;;;16.47;59.62
63097;BME280;49185;42.320;23.198;2022-11-20T06:27:56;94169.44;;;16.65;60.19
63097;BME280;49185;42.320;23.198;2022-11-20T06:30:22;94149.53;;;16.94;59.84
63097;BME280;49185;42.320;23.198;2022-11-20T06:32:47;94152.81;;;16.77;60.47
63097;BME280;49185;42.320;23.198;2022-11-20T06:35:13;94150.25;;;16.72;61.80
63097;BME280;49185;42.320;23.198;2022-11-20T06:37:38;94143.81;;;17.10;60.36
63097;BME280;49185;42.320;23.198;2022-11-20T06:40:04;94142.91;;;17.59;58.48
63097;BME280;49185;42.320;23.198;2022-11-20T06:42:30;94131.97;;;17.33;59.05
63097;BME280;49185;42.320;23.198;2022-11-20T06:44:55;94146.88;;;17.17;59.42
63097;BME280;49185;42.320;23.198;2022-11-20T06:47:20;94154.25;;;16.47;61.79
63097;BME280;49185;42.320;23.198;2022-11-20T06:49:46;94134.31;;;16.76;53.97
63097;BME280;49185;42.320;23.198;2022-11-20T06:52:11;94150.34;;;17.17;54.50
63097;BME280;49185;42.320;23.198;2022-11-20T06:54:37;94162.78;;;17.27;53.44
63097;BME280;49185;42.320;23.198;2022-11-20T06:57:02;94152.97;;;17.08;52.96
63097;BME280;49185;42.320;23.198;2022-11-20T06:59:28;94150.41;;;17.26;52.02
63097;BME280;49185;42.320;23.198;2022-11-20T07:01:53;94141.06;;;17.23;51.22
63097;BME280;49185;42.320;23.198;2022-11-20T07:04:18;94148.63;;;16.99;53.45
63097;BME280;49185;42.320;23.198;2022-11-20T07:06:44;94159.59;;;16.88;54.24
63097;BME280;49185;42.320;23.198;2022-11-20T07:09:09;94172.91;;;16.80;54.85
63097;BME280;49185;42.320;23.198;2022-11-20T07:11:37;94172.44;;;16.64;56.11
63097;BME280;49185;42.320;23.198;2022-11-20T07:14:03;94183.25;;;16.73;55.15
63097;BME280;49185;42.320;23.198;2022-11-20T07:16:28;94177.19;;;16.81;54.85
63097;BME280;49185;42.320;23.198;2022-11-20T07:18:54;94186.84;;;16.96;55.50
63097;BME280;49185;42.320;23.198;2022-11-20T07:21:19;94180.69;;;16.95;54.58
63097;BME280;49185;42.320;23.198;2022-11-20T07:23:45;94192.84;;;17.52;53.98
63097;BME280;49185;42.320;23.198;2022-11-20T07:26:11;94198.84;;;17.71;53.14
63097;BME280;49185;42.320;23.198;2022-11-20T07:28:36;94206.38;;;17.83;53.40
63097;BME280;49185;42.320;23.198;2022-11-20T07:31:03;94193.16;;;18.27;54.52
63097;BME280;49185;42.320;23.198;2022-11-20T07:33:28;94191.69;;;17.67;57.65
63097;BME280;49185;42.320;23.198;2022-11-20T07:35:54;94194.84;;;17.69;57.60
63097;BME280;49185;42.320;23.198;2022-11-20T07:38:19;94189.47;;;18.14;55.85
63097;BME280;49185;42.320;23.198;2022-11-20T07:40:45;94185.56;;;18.29;55.38
63097;BME280;49185;42.320;23.198;2022-11-20T07:43:10;94207.56;;;17.91;56.72
63097;BME280;49185;42.320;23.198;2022-11-20T07:45:36;94211.56;;;17.57;58.21
63097;BME280;49185;42.320;23.198;2022-11-20T07:48:01;94210.03;;;17.64;56.71
63097;BME280;49185;42.320;23.198;2022-11-20T07:50:27;94212.78;;;17.51;58.86
63097;BME280;49185;42.320;23.198;2022-11-20T07:53:00;94229.75;;;17.60;59.50
63097;BME280;49185;42.320;23.198;2022-11-20T07:55:26;94218.06;;;17.19;61.45
63097;BME280;49185;42.320;23.198;2022-11-20T07:57:55;94210.25;;;16.95;62.63
63097;BME280;49185;42.320;23.198;2022-11-20T08:00:21;94206.56;;;16.63;64.78
63097;BME280;49185;42.320;23.198;2022-11-20T08:02:46;94186.28;;;16.43;64.93
63097;BME280;49185;42.320;23.198;2022-11-20T08:05:12;94197.81;;;16.30;65.84
63097;BME280;49185;42.320;23.198;2022-11-20T08:07:38;94182.09;;;16.37;65.13
63097;BME280;49185;42.320;23.198;2022-11-20T08:10:05;94186.78;;;16.31;65.86
63097;BME280;49185;42.320;23.198;2022-11-20T08:12:30;94183.50;;;16.48;65.34
63097;BME280;49185;42.320;23.198;2022-11-20T08:14:56;94177.91;;;16.59;64.71
63097;BME280;49185;42.320;23.198;2022-11-20T08:17:21;94187.06;;;16.58;64.30
63097;BME280;49185;42.320;23.198;2022-11-20T08:19:47;94193.44;;;16.48;64.21
63097;BME280;49185;42.320;23.198;2022-11-20T08:22:12;94202.59;;;16.47;64.00
63097;BME280;49185;42.320;23.198;2022-11-20T08:24:38;94194.94;;;16.40;64.89
63097;BME280;49185;42.320;23.198;2022-11-20T08:27:03;94210.25;;;15.93;68.44
63097;BME280;49185;42.320;23.198;2022-11-20T08:29:29;94216.72;;;15.40;71.82
63097;BME280;49185;42.320;23.198;2022-11-20T08:31:54;94226.56;;;15.26;73.87
63097;BME280;49185;42.320;23.198;2022-11-20T08:34:20;94229.78;;;15.09;75.90
63097;BME280;49185;42.320;23.198;2022-11-20T08:36:45;94213.63;;;15.14;76.03
63097;BME280;49185;42.320;23.198;2022-11-20T08:39:12;94230.31;;;15.44;75.83
63097;BME280;49185;42.320;23.198;2022-11-20T08:41:38;94236.94;;;15.51;73.98
63097;BME280;49185;42.320;23.198;2022-11-20T08:44:05;94237.22;;;15.50;73.58
63097;BME280;49185;42.320;23.198;2022-11-20T08:46:33;94238.03;;;15.12;75.93
63097;BME280;49185;42.320;23.198;2022-11-20T08:48:59;94244.09;;;14.99;75.82
63097;BME280;49185;42.320;23.198;2022-11-20T08:51:25;94241.53;;;14.89;76.97
63097;BME280;49185;42.320;23.198;2022-11-20T08:53:50;94247.38;;;14.91;77.10
63097;BME280;49185;42.320;23.198;2022-11-20T08:56:16;94231.78;;;14.98;76.58
63097;BME280;49185;42.320;23.198;2022-11-20T08:58:42;94229.56;;;15.05;76.66
63097;BME280;49185;42.320;23.198;2022-11-20T09:01:08;94218.41;;;14.98;76.09
63097;BME280;49185;42.320;23.198;2022-11-20T09:03:33;94227.25;;;15.17;76.21
63097;BME280;49185;42.320;23.198;2022-11-20T09:06:06;94221.78;;;15.04;74.92
63097;BME280;49185;42.320;23.198;2022-11-20T09:08:32;94236.94;;;15.32;74.83
63097;BME280;49185;42.320;23.198;2022-11-20T09:10:59;94225.13;;;15.14;75.18
63097;BME280;49185;42.320;23.198;2022-11-20T09:13:26;94232.50;;;15.04;76.33
63097;BME280;49185;42.320;23.198;2022-11-20T09:15:53;94221.78;;;15.04;75.44
63097;BME280;49185;42.320;23.198;2022-11-20T09:18:19;94205.56;;;15.33;74.10
63097;BME280;49185;42.320;23.198;2022-11-20T09:20:44;94228.72;;;15.62;72.70
63097;BME280;49185;42.320;23.198;2022-11-20T09:23:10;94239.56;;;15.89;72.85
63097;BME280;49185;42.320;23.198;2022-11-20T09:25:35;94237.00;;;15.46;74.92
63097;BME280;49185;42.320;23.198;2022-11-20T09:28:01;94223.59;;;14.89;77.62
63097;BME280;49185;42.320;23.198;2022-11-20T09:30:27;94225.41;;;14.94;78.07
63097;BME280;49185;42.320;23.198;2022-11-20T09:32:52;94227.50;;;14.97;76.89
63097;BME280;49185;42.320;23.198;2022-11-20T09:35:18;94222.88;;;15.03;76.27
63097;BME280;49185;42.320;23.198;2022-11-20T09:37:44;94213.53;;;15.00;76.86
63097;BME280;49185;42.320;23.198;2022-11-20T09:40:20;94211.72;;;15.14;76.89
63097;BME280;49185;42.320;23.198;2022-11-20T09:54:20;94154.81;;;16.02;73.36
63097;BME280;49185;42.320;23.198;2022-11-20T09:56:53;94145.31;;;16.24;72.49
63097;BME280;49185;42.320;23.198;2022-11-20T10:08:07;94146.50;;;16.45;69.12
63097;BME280;49185;42.320;23.198;2022-11-20T10:13:32;94134.47;;;16.29;69.33
63097;BME280;49185;42.320;23.198;2022-11-20T10:16:16;94133.28;;;16.35;68.17
63097;BME280;49185;42.320;23.198;2022-11-20T10:24:56;94110.69;;;16.50;67.08
63097;BME280;49185;42.320;23.198;2022-11-20T10:30:09;94113.72;;;16.71;65.10
63097;BME280;49185;42.320;23.198;2022-11-20T10:33:21;94107.34;;;16.95;61.95
63097;BME280;49185;42.320;23.198;2022-11-20T10:35:51;94112.78;;;17.26;59.65
63097;BME280;49185;42.320;23.198;2022-11-20T10:39:06;94114.75;;;17.34;59.87
63097;BME280;49185;42.320;23.198;2022-11-20T10:41:19;94108.94;;;17.41;59.66
63097;BME280;49185;42.320;23.198;2022-11-20T10:43:46;94101.72;;;17.27;59.04
63097;BME280;49185;42.320;23.198;2022-11-20T10:46:19;94105.25;;;17.37;55.42
63097;BME280;49185;42.320;23.198;2022-11-20T10:48:46;94118.63;;;17.73;54.49
63097;BME280;49185;42.320;23.198;2022-11-20T10:56:45;94124.53;;;18.15;54.37
63097;BME280;49185;42.320;23.198;2022-11-20T11:02:16;94150.09;;;17.95;55.86
63097;BME280;49185;42.320;23.198;2022-11-20T11:04:52;94154.31;;;17.65;55.45
63097;BME280;49185;42.320;23.198;2022-11-20T11:07:39;94158.50;;;17.71;55.13
63097;BME280;49185;42.320;23.198;2022-11-20T11:10:34;94167.88;;;16.64;64.26
63097;BME280;49185;42.320;23.198;2022-11-20T11:13:01;94164.91;;;16.24;65.93
63097;BME280;49185;42.320;23.198;2022-11-20T11:15:30;94185.56;;;15.44;71.63
63097;BME280;49185;42.320;23.198;2022-11-20T11:18:01;94222.00;;;14.64;73.77
63097;BME280;49185;42.320;23.198;2022-11-20T11:20:26;94236.56;;;13.70;73.86
63097;BME280;49185;42.320;23.198;2022-11-20T11:22:57;94234.84;;;13.50;73.82
63097;BME280;49185;42.320;23.198;2022-11-20T11:25:32;94222.97;;;13.27;75.82
63097;BME280;49185;42.320;23.198;2022-11-20T11:28:00;94208.38;;;13.14;76.02
63097;BME280;49185;42.320;23.198;2022-11-20T11:30:28;94210.34;;;12.98;75.37
63097;BME280;49185;42.320;23.198;2022-11-20T11:33:26;94210.13;;;12.89;75.82
63097;BME280;49185;42.320;23.198;2022-11-20T11:36:02;94199.72;;;12.83;76.64
63097;BME280;49185;42.320;23.198;2022-11-20T11:38:32;94204.56;;;12.76;78.22
63097;BME280;49185;42.320;23.198;2022-11-20T11:41:00;94215.81;;;12.67;80.68
63097;BME280;49185;42.320;23.198;2022-11-20T11:43:29;94218.22;;;12.64;81.51
63097;BME280;49185;42.320;23.198;2022-11-20T11:45:56;94220.91;;;12.59;82.20
63097;BME280;49185;42.320;23.198;2022-11-20T11:48:22;94234.84;;;12.56;81.50
63097;BME280;49185;42.320;23.198;2022-11-20T11:50:49;94244.75;;;12.45;81.14
63097;BME280;49185;42.320;23.198;2022-11-20T11:53:18;94250.63;;;12.37;81.80
63097;BME280;49185;42.320;23.198;2022-11-20T12:14:53;94258.16;;;11.99;84.61
63097;BME280;49185;42.320;23.198;2022-11-20T12:17:40;94250.66;;;12.11;84.88
63097;BME280;49185;42.320;23.198;2022-11-20T12:20:30;94215.72;;;12.23;85.04
63097;BME280;49185;42.320;23.198;2022-11-20T12:23:23;94213.47;;;12.56;84.23
63097;BME280;49185;42.320;23.198;2022-11-20T12:44:08;94172.72;;;13.93;80.77
63097;BME280;49185;42.320;23.198;2022-11-20T12:53:11;94162.78;;;13.98;80.22
63097;BME280;49185;42.320;23.198;2022-11-20T12:59:43;94156.50;;;13.20;84.94
63097;BME280;49185;42.320;23.198;2022-11-20T13:02:52;94150.94;;;13.51;82.90
63097;BME280;49185;42.320;23.198;2022-11-20T13:05:31;94142.78;;;13.37;84.63
63097;BME280;49185;42.320;23.198;2022-11-20T13:08:01;94130.28;;;13.86;80.74
63097;BME280;49185;42.320;23.198;2022-11-20T13:10:49;94124.13;;;13.85;80.18
63097;BME280;49185;42.320;23.198;2022-11-20T13:13:15;94126.19;;;13.94;79.74
63097;BME280;49185;42.320;23.198;2022-11-20T13:16:05;94123.41;;;14.04;79.16
63097;BME280;49185;42.320;23.198;2022-11-20T13:18:39;94122.22;;;14.15;76.82
63097;BME280;49185;42.320;23.198;2022-11-20T13:23:40;94110.56;;;14.25;77.50
63097;BME280;49185;42.320;23.198;2022-11-20T13:26:22;94113.13;;;13.92;80.00
63097;BME280;49185;42.320;23.198;2022-11-20T13:29:10;94092.25;;;13.41;83.17
63097;BME280;49185;42.320;23.198;2022-11-20T13:31:39;94100.41;;;13.20;84.84
63097;BME280;49185;42.320;23.198;2022-11-20T13:34:07;94102.88;;;13.46;84.00
63097;BME280;49185;42.320;23.198;2022-11-20T13:36:36;94097.41;;;14.29;78.52
63097;BME280;49185;42.320;23.198;2022-11-20T13:39:02;94092.72;;;14.39;76.80
63097;BME280;49185;42.320;23.198;2022-11-20T13:46:41;94077.06;;;14.09;77.52
63097;BME280;49185;42.320;23.198;2022-11-20T13:49:09;94083.22;;;14.09;77.50
63097;BME280;49185;42.320;23.198;2022-11-20T13:51:48;94070.13;;;14.08;77.94
63097;BME280;49185;42.320;23.198;2022-11-20T14:00:02;94061.81;;;14.09;76.54
63097;BME280;49185;42.320;23.198;2022-11-20T14:02:30;94051.78;;;14.01;76.39
63097;BME280;49185;42.320;23.198;2022-11-20T14:05:00;94039.97;;;14.02;74.86
63097;BME280;49185;42.320;23.198;2022-11-20T14:07:39;94044.75;;;14.05;74.39
63097;BME280;49185;42.320;23.198;2022-11-20T14:10:20;94052.00;;;14.04;76.02
63097;BME280;49185;42.320;23.198;2022-11-20T14:12:45;94054.44;;;14.01;75.90
63097;BME280;49185;42.320;23.198;2022-11-20T14:15:30;94052.06;;;13.99;76.31
63097;BME280;49185;42.320;23.198;2022-11-20T14:17:56;94049.09;;;14.01;76.38
63097;BME280;49185;42.320;23.198;2022-11-20T14:20:26;94041.34;;;13.99;75.90
63097;BME280;49185;42.320;23.198;2022-11-20T14:22:53;94055.75;;;14.03;75.55
63097;BME280;49185;42.320;23.198;2022-11-20T14:25:42;94042.66;;;14.02;76.31
63097;BME280;49185;42.320;23.198;2022-11-20T14:28:28;94036.56;;;13.96;75.46
63097;BME280;49185;42.320;23.198;2022-11-20T14:30:54;94041.34;;;13.99;75.75
63097;BME280;49185;42.320;23.198;2022-11-20T14:33:20;94052.44;;;13.39;77.87
63097;BME280;49185;42.320;23.198;2022-11-20T14:35:48;94063.00;;;13.20;78.88
63097;BME280;49185;42.320;23.198;2022-11-20T14:38:17;94058.34;;;13.36;76.69
63097;BME280;49185;42.320;23.198;2022-11-20T14:40:44;94048.19;;;13.62;77.34
63097;BME280;49185;42.320;23.198;2022-11-20T14:45:56;94043.59;;;13.68;76.18
63097;BME280;49185;42.320;23.198;2022-11-20T14:48:29;94048.72;;;13.64;76.87
63097;BME280;49185;42.320;23.198;2022-11-20T14:50:56;94037.66;;;13.95;75.47
63097;BME280;49185;42.320;23.198;2022-11-20T14:53:24;94053.09;;;13.55;76.78
63097;BME280;49185;42.320;23.198;2022-11-20T14:56:01;94059.09;;;13.42;77.20
63097;BME280;49185;42.320;23.198;2022-11-20T14:58:31;94064.19;;;13.38;76.67
63097;BME280;49185;42.320;23.198;2022-11-20T15:05:58;94077.78;;;12.33;82.31
63097;BME280;49185;42.320;23.198;2022-11-20T15:08:23;94072.09;;;12.85;80.19
63097;BME280;49185;42.320;23.198;2022-11-20T15:10:50;94074.81;;;12.80;79.96
63097;BME280;49185;42.320;23.198;2022-11-20T15:15:56;94095.59;;;11.73;85.34
63097;BME280;49185;42.320;23.198;2022-11-20T15:20:54;94087.97;;;11.40;86.22
63097;BME280;49185;42.320;23.198;2022-11-20T15:23:20;94107.38;;;11.46;86.30
63097;BME280;49185;42.320;23.198;2022-11-20T15:25:47;94104.47;;;11.37;86.16
63097;BME280;49185;42.320;23.198;2022-11-20T15:28:19;94097.78;;;11.40;86.10
63097;BME280;49185;42.320;23.198;2022-11-20T15:30:49;94116.22;;;11.26;87.00
63097;BME280;49185;42.320;23.198;2022-11-20T15:33:15;94125.25;;;11.10;87.08
63097;BME280;49185;42.320;23.198;2022-11-20T15:35:42;94117.69;;;11.99;83.32
63097;BME280;49185;42.320;23.198;2022-11-20T15:38:08;94122.00;;;11.59;84.09
63097;BME280;49185;42.320;23.198;2022-11-20T15:40:33;94127.06;;;11.55;84.60
63097;BME280;49185;42.320;23.198;2022-11-20T15:42:59;94118.78;;;11.72;83.71
63097;BME280;49185;42.320;23.198;2022-11-20T15:45:24;94128.91;;;11.70;83.08
63097;BME280;49185;42.320;23.198;2022-11-20T15:47:50;94139.84;;;12.49;79.71
63097;BME280;49185;42.320;23.198;2022-11-20T15:50:17;94152.41;;;12.94;77.41
63097;BME280;49185;42.320;23.198;2022-11-20T15:52:42;94152.09;;;12.61;78.87
63097;BME280;49185;42.320;23.198;2022-11-20T15:55:09;94160.88;;;11.96;80.99
63097;BME280;49185;42.320;23.198;2022-11-20T15:57:35;94146.50;;;11.71;83.02
63097;BME280;49185;42.320;23.198;2022-11-20T16:00:00;94155.59;;;11.55;83.53
63097;BME280;49185;42.320;23.198;2022-11-20T16:02:26;94138.81;;;12.45;80.02
63097;BME280;49185;42.320;23.198;2022-11-20T16:04:51;94158.63;;;12.84;78.71
63097;BME280;49185;42.320;23.198;2022-11-20T16:07:17;94163.47;;;13.16;75.77
63097;BME280;49185;42.320;23.198;2022-11-20T16:09:42;94160.38;;;12.99;72.70
63097;BME280;49185;42.320;23.198;2022-11-20T16:12:09;94167.66;;;12.88;72.70
63097;BME280;49185;42.320;23.198;2022-11-20T16:14:34;94174.31;;;12.90;71.88
63097;BME280;49185;42.320;23.198;2022-11-20T16:17:00;94176.47;;;12.88;70.03
63097;BME280;49185;42.320;23.198;2022-11-20T16:19:25;94163.22;;;12.73;69.00
63097;BME280;49185;42.320;23.198;2022-11-20T16:21:51;94163.84;;;12.54;69.71
63097;BME280;49185;42.320;23.198;2022-11-20T16:24:16;94159.69;;;12.28;70.46
63097;BME280;49185;42.320;23.198;2022-11-20T16:26:42;94163.72;;;12.20;71.30
63097;BME280;49185;42.320;23.198;2022-11-20T16:29:07;94177.31;;;12.29;70.65